Terminal Aerodrome Forecast
Issued by NWS Sterling, VA

Current Version | Previous Version | Graphics & Text | Print | Product List | Glossary On
Versions: 1 2 3 4 5 6 7 8 9 10 11 12 13 14 15 16 17 18 19 20 21 22
643
FTUS41 KLWX 221720
TAFIAD
TAF
KIAD 221720Z 2218/2324 18006KT P6SM BKN130
     FM230000 VRB03KT P6SM BKN200
     FM230600 19004KT 2SM BR BKN008 BKN050
     FM231400 20008G16KT P6SM SCT050 SCT200=

USA.gov is the U.S. government's official web portal to all federal, state and local government web resources and services.